KBAD/BAD METAR and TAF weather

Enter ICAO airport designator
Station Type Date Time Source
KBAD METAR 2021/01/17 18:56 UTC NOAA

KBAD 171856Z AUTO 33009KT 10SM SCT110 BKN140 12/M04 A3005 RMK AO2 SLP179 T01211045


Station Type Date Time Source
KBAD Decoded METAR 2021/01/17 18:56 UTC NOAA

Barksdale Air Force Base, LA, United States (KBAD) 32-30N 093-40W
Jan 17, 2021 - 01:56 PM EST / 2021.01.17 1856 UTC
Wind: from the NNW (330 degrees) at 10 MPH (9 KT):0
Visibility: 10 mile(s):0
Sky conditions: mostly cloudy
Temperature: 53.8 F (12.1 C)
Dew Point: 23.9 F (-4.5 C)
Relative Humidity: 31%
Pressure (altimeter): 30.05 in. Hg (1017 hPa)
ob: KBAD 171856Z AUTO 33009KT 10SM SCT110 BKN140 12/M04 A3005 RMK AO2 SLP179 T01211045
cycle: 19

Station Type Date Time Source
KBAD TAF 2021/01/15 18:58 UTC NOAA

TAF KBAD 151800Z 1518/1624 29020G30KT 9999 SKC QNH2993INS
BECMG 1519/1520 29020G35KT 9999 SKC QNH2989INS
BECMG 1600/1601 28010KT 9999 SKC QNH2994INS TX18/1521Z TN02/1612Z LAST NO
AMDS AFT 1522 NEXT 1913

Example: see airport list